Time;durP1;ratioP1;P1;durP2;ratioP2;P2;SDS_P1;SDS_P2;PMS_P1;PMS_P2;Temp;Humidity;BMP_temperature;BMP_pressure;BME280_temperature;BME280_humidity;BME280_pressure;Samples;Min_cycle;Max_cycle;Signal;HPM_P1;HPM_P2
2021/07/03 00:00:30;;;;;;;12.05;11.48;;;;;;;16.66;63.22;93215.44;5091315;28;20493;-50
2021/07/03 00:02:56;;;;;;;14.63;13.82;;;;;;;16.57;64.79;93226.63;5090787;28;20498;-55
2021/07/03 00:05:21;;;;;;;16.67;15.57;;;;;;;16.35;65.56;93211.88;5071470;28;20390;-55
2021/07/03 00:07:47;;;;;;;16.73;15.82;;;;;;;16.37;65.26;93222.44;5070082;28;20580;-54
2021/07/03 00:10:12;;;;;;;16.08;15.32;;;;;;;16.39;64.82;93228.88;5070571;28;20029;-56
2021/07/03 00:12:38;;;;;;;15.70;15.00;;;;;;;16.31;64.63;93208.06;5070570;28;20081;-51
2021/07/03 00:15:07;;;;;;;16.65;15.85;;;;;;;16.50;64.69;93222.69;5081859;28;20023;-48
2021/07/03 00:17:32;;;;;;;15.63;14.82;;;;;;;16.41;65.10;93217.13;5076678;28;20020;-50
2021/07/03 00:19:58;;;;;;;17.13;16.35;;;;;;;16.46;64.97;93216.06;5073289;28;20028;-52
2021/07/03 00:22:23;;;;;;;16.38;15.02;;;;;;;16.36;65.12;93213.34;5073121;28;20032;-53
2021/07/03 00:24:48;;;;;;;16.90;16.00;;;;;;;16.25;64.85;93207.66;5089520;28;20028;-53
2021/07/03 00:27:14;;;;;;;16.65;15.75;;;;;;;16.19;65.18;93207.25;5089568;28;20027;-53
2021/07/03 00:29:39;;;;;;;16.08;15.27;;;;;;;16.20;65.06;93211.50;5090052;28;20020;-51
2021/07/03 00:32:05;;;;;;;15.63;14.75;;;;;;;16.18;65.29;93214.84;5070559;28;20028;-53
2021/07/03 00:34:30;;;;;;;17.05;16.05;;;;;;;16.16;65.48;93205.63;5070262;28;20039;-54
2021/07/03 00:36:56;;;;;;;16.15;15.30;;;;;;;16.10;65.43;93205.22;5072898;28;20028;-53
2021/07/03 00:39:21;;;;;;;17.38;16.20;;;;;;;15.96;65.99;93210.50;5080047;28;20413;-51
2021/07/03 00:41:47;;;;;;;16.20;15.50;;;;;;;15.97;65.81;93202.91;5079694;28;20660;-54
2021/07/03 00:44:12;;;;;;;16.42;15.57;;;;;;;15.93;65.66;93204.09;5078545;28;20016;-54
2021/07/03 00:46:37;;;;;;;16.95;16.05;;;;;;;15.86;65.47;93212.59;5080269;28;20413;-50
2021/07/03 00:49:03;;;;;;;16.45;15.65;;;;;;;15.78;66.26;93214.81;5079852;28;20027;-50
2021/07/03 00:51:28;;;;;;;18.40;16.88;;;;;;;15.83;65.44;93205.44;5086051;28;20024;-50
2021/07/03 00:53:54;;;;;;;17.08;16.02;;;;;;;15.65;66.57;93204.88;5089883;28;20022;-48
2021/07/03 00:56:19;;;;;;;16.38;15.48;;;;;;;15.56;66.96;93213.22;5090149;28;20451;-49
2021/07/03 00:58:45;;;;;;;15.68;14.88;;;;;;;15.68;66.50;93214.09;5090080;28;20016;-49
2021/07/03 01:01:10;;;;;;;17.08;16.27;;;;;;;15.60;66.81;93214.25;5074762;28;20029;-48
2021/07/03 01:03:36;;;;;;;14.57;13.95;;;;;;;15.53;65.90;93209.56;5069978;28;20071;-50
2021/07/03 01:06:01;;;;;;;16.45;15.65;;;;;;;15.55;66.61;93218.06;5070016;28;20024;-49
2021/07/03 01:08:27;;;;;;;16.90;16.10;;;;;;;15.51;66.90;93217.03;5070027;28;20021;-49
2021/07/03 01:10:52;;;;;;;17.90;17.10;;;;;;;15.57;67.08;93215.41;5068927;28;22042;-49
2021/07/03 01:13:25;;;;;;;16.75;15.93;;;;;;;15.57;66.71;93215.41;5070060;28;20020;-48
2021/07/03 01:15:50;;;;;;;15.93;15.23;;;;;;;15.49;66.93;93214.84;5069800;28;20028;-48
2021/07/03 01:18:16;;;;;;;15.93;14.93;;;;;;;15.41;66.55;93217.03;5069958;28;20024;-50
2021/07/03 01:20:41;;;;;;;19.50;18.50;;;;;;;15.44;66.51;93206.81;5088643;28;20554;-49
2021/07/03 01:23:07;;;;;;;21.05;19.85;;;;;;;15.46;67.08;93204.16;5088590;28;20020;-48
2021/07/03 01:25:32;;;;;;;20.05;18.92;;;;;;;15.43;66.82;93197.72;5089850;28;20020;-51
2021/07/03 01:28:02;;;;;;;23.95;22.40;;;;;;;15.26;67.86;93203.41;5089972;28;20032;-47
2021/07/03 01:30:28;;;;;;;24.02;22.70;;;;;;;15.25;68.06;93199.16;5084404;28;20074;-49
2021/07/03 01:32:55;;;;;;;22.00;20.77;;;;;;;15.29;67.42;93204.28;5069190;28;20429;-47
2021/07/03 01:35:27;;;;;;;21.15;19.95;;;;;;;15.25;67.20;93195.63;5069484;28;20032;-48
2021/07/03 01:37:53;;;;;;;19.30;18.13;;;;;;;15.32;66.44;93200.31;5069628;28;20465;-48
2021/07/03 01:40:18;;;;;;;19.60;18.55;;;;;;;15.22;66.98;93191.25;5069675;28;20024;-48
2021/07/03 01:42:44;;;;;;;19.80;18.73;;;;;;;15.21;67.23;93190.50;5069544;28;20055;-48
2021/07/03 01:45:10;;;;;;;19.92;18.65;;;;;;;15.05;67.65;93192.84;5069240;28;20024;-50
2021/07/03 01:47:42;;;;;;;19.33;18.42;;;;;;;14.99;67.14;93200.00;5069448;28;20024;-49
2021/07/03 01:50:08;;;;;;;19.13;18.13;;;;;;;14.99;67.37;93188.88;5068939;28;20031;-49
2021/07/03 01:52:37;;;;;;;21.90;20.70;;;;;;;15.04;67.53;93194.19;5068679;28;20104;-48
2021/07/03 01:55:04;;;;;;;19.67;18.38;;;;;;;14.98;67.34;93201.34;5068356;28;20509;-48
2021/07/03 01:57:29;;;;;;;18.52;17.63;;;;;;;14.99;66.92;93200.75;5083912;28;20039;-49
2021/07/03 01:59:55;;;;;;;21.35;20.15;;;;;;;14.94;68.06;93195.47;5088821;28;20024;-48
2021/07/03 02:02:20;;;;;;;21.17;20.05;;;;;;;14.99;67.59;93200.75;5088826;28;20442;-49
2021/07/03 02:04:45;;;;;;;22.13;20.90;;;;;;;14.87;67.94;93194.31;5088536;28;20028;-47
2021/07/03 02:07:11;;;;;;;22.23;20.95;;;;;;;14.89;67.59;93197.22;5088425;28;20028;-49
2021/07/03 02:09:36;;;;;;;21.63;20.52;;;;;;;14.91;67.38;93197.38;5088828;28;20035;-52
2021/07/03 02:12:02;;;;;;;21.52;19.80;;;;;;;14.64;67.85;93205.06;5075826;28;20744;-52
2021/07/03 02:14:28;;;;;;;20.33;19.33;;;;;;;14.56;67.65;93200.94;5068610;28;20417;-49
2021/07/03 02:16:53;;;;;;;19.77;18.55;;;;;;;14.59;68.03;93203.31;5068206;28;20027;-49
2021/07/03 02:19:20;;;;;;;18.83;17.83;;;;;;;14.71;67.49;93200.69;5068103;28;20025;-48
2021/07/03 02:21:45;;;;;;;17.80;16.77;;;;;;;14.57;68.12;93200.38;5069459;28;20044;-49
2021/07/03 02:24:11;;;;;;;18.10;17.20;;;;;;;14.54;68.24;93207.09;5072055;28;20024;-49
2021/07/03 02:26:36;;;;;;;18.02;17.23;;;;;;;14.49;68.36;93212.94;5072158;28;20501;-49
2021/07/03 02:29:02;;;;;;;19.50;18.60;;;;;;;14.57;67.95;93210.75;5072176;28;20024;-50
2021/07/03 02:31:28;;;;;;;18.45;17.48;;;;;;;14.59;67.84;93216.47;5085338;28;20024;-49
2021/07/03 02:33:53;;;;;;;19.52;18.63;;;;;;;14.61;67.80;93208.28;5090672;28;20040;-48
2021/07/03 02:36:19;;;;;;;17.48;16.67;;;;;;;14.68;67.89;93218.53;5103754;28;20022;-50
2021/07/03 02:38:44;;;;;;;17.58;16.67;;;;;;;14.63;68.07;93223.06;5111036;28;20038;-50
2021/07/03 02:41:10;;;;;;;17.75;16.95;;;;;;;14.65;67.61;93216.91;5111204;28;20027;-52
2021/07/03 02:43:35;;;;;;;18.67;17.77;;;;;;;14.61;67.57;93219.41;5091818;28;20034;-49
2021/07/03 02:46:01;;;;;;;20.13;18.67;;;;;;;14.61;68.40;93219.41;5090197;28;20034;-46
2021/07/03 02:48:26;;;;;;;18.15;17.25;;;;;;;14.59;67.98;93219.25;5090066;28;20061;-47
2021/07/03 02:50:51;;;;;;;17.40;16.60;;;;;;;14.59;67.45;93219.97;5090388;28;20020;-50
2021/07/03 02:53:17;;;;;;;19.33;18.15;;;;;;;14.56;67.63;93212.06;5090936;28;20024;-49
2021/07/03 02:55:42;;;;;;;18.40;17.10;;;;;;;14.51;68.08;93218.66;5091637;28;20028;-51
2021/07/03 02:58:08;;;;;;;18.00;17.10;;;;;;;14.52;67.78;93209.72;5090032;28;20024;-48
2021/07/03 03:00:33;;;;;;;18.70;17.70;;;;;;;14.36;68.37;93200.88;5089939;28;20032;-50
2021/07/03 03:02:59;;;;;;;18.95;18.05;;;;;;;14.31;68.53;93226.16;5090286;28;20024;-49
2021/07/03 03:05:24;;;;;;;18.33;17.02;;;;;;;14.19;68.59;93225.19;5090231;28;20016;-49
2021/07/03 03:07:50;;;;;;;19.63;18.63;;;;;;;14.21;68.72;93214.97;5089989;28;20536;-49
2021/07/03 03:10:17;;;;;;;18.38;17.48;;;;;;;14.28;68.42;93218.97;5090323;28;20111;-50
2021/07/03 03:12:44;;;;;;;17.70;16.83;;;;;;;14.29;68.87;93223.94;5072640;28;20020;-50
2021/07/03 03:15:12;;;;;;;19.65;18.38;;;;;;;14.32;68.92;93227.63;5071569;28;20025;-48
2021/07/03 03:17:37;;;;;;;19.08;17.90;;;;;;;14.15;69.52;93224.88;5091531;28;20020;-48
2021/07/03 03:20:05;;;;;;;18.65;17.55;;;;;;;14.02;70.27;93233.59;5087618;28;20082;-49
2021/07/03 03:22:31;;;;;;;20.20;19.20;;;;;;;14.08;70.05;93218.13;5071352;28;20034;-49
2021/07/03 03:24:56;;;;;;;19.50;18.15;;;;;;;14.04;70.31;93225.41;5071125;28;20029;-49
2021/07/03 03:27:22;;;;;;;20.52;18.38;;;;;;;14.08;70.06;93220.19;5070868;28;20410;-49
2021/07/03 03:29:47;;;;;;;17.63;16.52;;;;;;;14.12;70.22;93229.56;5070819;28;20029;-48
2021/07/03 03:32:13;;;;;;;17.25;16.35;;;;;;;14.16;69.69;93234.69;5089992;28;20024;-49
2021/07/03 03:34:38;;;;;;;17.60;16.60;;;;;;;14.08;69.86;93234.06;5091146;28;20552;-48
2021/07/03 03:37:04;;;;;;;17.35;16.42;;;;;;;14.03;69.54;93237.84;5091052;28;20032;-49
2021/07/03 03:39:29;;;;;;;18.50;17.48;;;;;;;14.04;69.44;93237.25;5091598;28;20028;-54
2021/07/03 03:41:55;;;;;;;17.08;16.05;;;;;;;14.21;68.18;93250.34;5099782;28;20416;-48
2021/07/03 03:44:20;;;;;;;16.63;15.63;;;;;;;14.00;68.90;93261.19;5110959;28;20085;-49
2021/07/03 03:46:51;;;;;;;17.30;16.25;;;;;;;14.03;68.94;93265.59;5111251;27;20031;-49
2021/07/03 03:49:18;;;;;;;17.65;16.55;;;;;;;13.81;69.20;93244.44;5101282;28;20036;-53
2021/07/03 03:51:43;;;;;;;16.45;15.65;;;;;;;13.96;69.19;93269.22;5090470;28;20031;-51
2021/07/03 03:54:09;;;;;;;17.33;16.10;;;;;;;14.03;69.95;93271.16;5090788;28;20024;-54
2021/07/03 03:56:34;;;;;;;17.10;16.30;;;;;;;13.93;70.82;93273.13;5090621;28;20027;-51
2021/07/03 03:58:59;;;;;;;18.25;17.05;;;;;;;13.86;70.69;93249.00;5090635;28;20027;-53
2021/07/03 04:01:25;;;;;;;17.67;16.40;;;;;;;14.06;70.77;93273.50;5093083;28;20031;-48
2021/07/03 04:03:50;;;;;;;16.45;15.35;;;;;;;14.21;70.80;93269.78;5090524;28;20020;-51
2021/07/03 04:06:16;;;;;;;18.60;17.55;;;;;;;14.29;70.33;93271.16;5090372;28;20062;-53
2021/07/03 04:08:41;;;;;;;18.42;17.23;;;;;;;14.24;70.75;93274.94;5090444;28;20778;-49
2021/07/03 04:11:06;;;;;;;18.20;16.92;;;;;;;14.27;70.67;93273.75;5085108;28;20509;-50
2021/07/03 04:13:32;;;;;;;17.77;16.80;;;;;;;14.29;71.55;93262.13;5070085;28;20028;-51
2021/07/03 04:15:57;;;;;;;18.13;17.02;;;;;;;14.44;71.70;93273.00;5069749;28;20032;-47
2021/07/03 04:18:23;;;;;;;18.83;17.73;;;;;;;14.55;71.14;93269.69;5084200;28;20051;-48
2021/07/03 04:20:48;;;;;;;19.83;18.75;;;;;;;14.67;71.23;93278.94;5069678;28;20039;-47
2021/07/03 04:23:14;;;;;;;18.33;17.17;;;;;;;14.73;70.74;93261.97;5069282;28;20127;-48
2021/07/03 04:25:39;;;;;;;17.40;16.50;;;;;;;14.83;70.62;93269.06;5069295;28;20154;-46
2021/07/03 04:28:05;;;;;;;17.60;16.50;;;;;;;14.92;71.03;93273.88;5069219;28;20060;-49
2021/07/03 04:30:30;;;;;;;17.50;16.40;;;;;;;15.01;71.86;93278.75;5075044;28;20028;-46
2021/07/03 04:32:57;;;;;;;19.35;18.20;;;;;;;15.08;70.17;93272.31;5089429;28;20599;-47
2021/07/03 04:35:22;;;;;;;18.80;17.63;;;;;;;15.20;69.89;93269.72;5095746;28;20465;-47
2021/07/03 04:37:48;;;;;;;20.58;19.15;;;;;;;15.24;69.65;93277.63;5109993;28;20027;-49
2021/07/03 04:40:13;;;;;;;20.15;18.92;;;;;;;15.26;69.50;93269.41;5109957;28;20400;-49
2021/07/03 04:42:39;;;;;;;20.25;18.83;;;;;;;15.45;70.54;93275.75;5109074;28;20209;-48
2021/07/03 04:45:05;;;;;;;20.48;18.90;;;;;;;15.56;70.78;93280.00;5088189;28;20028;-47
2021/07/03 04:47:31;;;;;;;18.65;17.65;;;;;;;15.70;70.12;93278.25;5088009;28;20028;-49
2021/07/03 04:49:56;;;;;;;18.95;17.95;;;;;;;15.82;69.44;93279.13;5089528;28;20390;-47
2021/07/03 04:52:22;;;;;;;17.35;16.45;;;;;;;15.97;69.33;93275.28;5089147;28;20020;-47
2021/07/03 04:54:47;;;;;;;18.85;17.48;;;;;;;15.99;69.11;93281.75;5089205;28;20019;-46
2021/07/03 04:57:13;;;;;;;18.02;16.92;;;;;;;15.94;69.39;93277.94;5089112;28;20028;-47
2021/07/03 04:59:40;;;;;;;19.38;18.08;;;;;;;15.99;69.76;93276.19;5089337;28;20028;-49
2021/07/03 05:02:08;;;;;;;21.02;19.48;;;;;;;15.98;68.96;93274.72;5089022;28;20815;-50
2021/07/03 05:04:33;;;;;;;22.35;20.73;;;;;;;16.01;69.07;93281.88;5089349;28;20024;-51
2021/07/03 05:06:59;;;;;;;22.75;21.35;;;;;;;16.14;69.05;93287.00;5089048;28;20028;-51
2021/07/03 05:09:24;;;;;;;23.15;21.63;;;;;;;16.13;69.03;93274.41;5089151;28;20060;-46
2021/07/03 05:11:50;;;;;;;22.73;20.95;;;;;;;16.26;69.15;93287.88;5088661;28;20113;-51
2021/07/03 05:14:16;;;;;;;23.15;21.17;;;;;;;16.28;69.07;93285.22;5088853;28;20027;-50
2021/07/03 05:16:41;;;;;;;22.55;20.92;;;;;;;16.40;68.60;93290.91;5089001;28;20035;-51
2021/07/03 05:19:07;;;;;;;16.70;15.70;;;;;;;16.47;66.86;93285.16;5083164;28;20020;-53
2021/07/03 05:21:32;;;;;;;20.42;19.42;;;;;;;16.45;68.26;93293.38;5068513;28;20090;-52
2021/07/03 05:23:58;;;;;;;20.30;19.35;;;;;;;16.42;68.64;93282.66;5068652;28;20032;-48
2021/07/03 05:26:23;;;;;;;20.88;19.77;;;;;;;16.35;68.77;93281.50;5068720;28;20101;-47
2021/07/03 05:28:49;;;;;;;16.60;15.60;;;;;;;16.41;67.60;93290.31;5068442;28;20055;-47
2021/07/03 05:31:14;;;;;;;19.52;18.30;;;;;;;16.38;67.68;93263.63;5079742;28;20028;-49
2021/07/03 05:33:40;;;;;;;17.50;16.38;;;;;;;16.57;66.75;93280.31;5088337;28;20040;-49
2021/07/03 05:36:05;;;;;;;15.55;14.75;;;;;;;16.60;65.83;93287.50;5087164;28;20028;-48
2021/07/03 05:38:39;;;;;;;15.93;15.10;;;;;;;16.55;66.43;93285.00;5088825;28;20031;-47
2021/07/03 05:41:05;;;;;;;17.25;16.35;;;;;;;16.62;66.67;93281.31;5088730;28;20028;-48
2021/07/03 05:43:30;;;;;;;61.55;19.73;;;;;;;16.68;67.62;93274.09;5088536;28;20021;-47
2021/07/03 05:45:56;;;;;;;14.80;13.55;;;;;;;16.87;67.05;93283.72;5088509;28;20543;-49
2021/07/03 05:48:22;;;;;;;16.13;15.23;;;;;;;16.91;66.03;93279.16;5087166;28;20028;-48
2021/07/03 05:50:47;;;;;;;15.50;14.63;;;;;;;16.97;64.59;93284.41;5095683;28;20015;-49
2021/07/03 05:53:12;;;;;;;18.33;17.35;;;;;;;17.06;66.04;93284.38;5108770;28;20039;-50
2021/07/03 05:55:38;;;;;;;19.05;17.73;;;;;;;17.11;66.28;93280.50;5109454;28;20019;-52
2021/07/03 05:58:03;;;;;;;16.52;15.35;;;;;;;17.10;65.77;93272.72;5113027;28;20023;-50
2021/07/03 06:00:29;;;;;;;17.50;16.42;;;;;;;17.25;65.44;93287.03;5113199;28;20051;-52
2021/07/03 06:02:54;;;;;;;15.50;14.48;;;;;;;17.29;64.59;93275.41;5112943;27;20420;-49
2021/07/03 06:05:20;;;;;;;16.85;15.40;;;;;;;17.32;64.62;93274.22;5112574;28;20404;-48
2021/07/03 06:07:45;;;;;;;17.23;15.85;;;;;;;17.38;65.29;93278.16;5112929;28;20024;-49
2021/07/03 06:10:11;;;;;;;17.73;16.63;;;;;;;17.41;65.56;93273.44;5112843;28;20027;-49
2021/07/03 06:12:37;;;;;;;16.23;14.93;;;;;;;17.42;64.65;93278.41;5094994;27;20057;-50
2021/07/03 06:15:05;;;;;;;16.08;14.25;;;;;;;17.30;64.86;93240.59;5092386;28;20488;-49
2021/07/03 06:17:30;;;;;;;14.32;13.52;;;;;;;17.50;64.32;93269.84;5092468;28;20031;-50
2021/07/03 06:19:55;;;;;;;14.52;13.63;;;;;;;17.50;64.32;93271.91;5079391;28;20195;-49
2021/07/03 06:22:21;;;;;;;23.40;21.38;;;;;;;17.50;63.90;93267.06;5071751;28;20082;-49
2021/07/03 06:24:48;;;;;;;17.25;15.95;;;;;;;17.49;65.10;93271.16;5071626;28;20032;-48
2021/07/03 06:27:14;;;;;;;17.20;16.05;;;;;;;17.48;64.61;93272.47;5071866;28;20108;-47
2021/07/03 06:29:39;;;;;;;17.02;15.88;;;;;;;17.53;65.04;93271.44;5071828;28;20040;-49
2021/07/03 06:32:06;;;;;;;99.13;67.10;;;;;;;17.59;65.57;93274.63;5089412;28;20490;-49
2021/07/03 06:34:32;;;;;;;243.43;144.60;;;;;;;17.73;65.29;93275.56;5091554;28;20081;-49
2021/07/03 06:36:58;;;;;;;31.92;28.58;;;;;;;17.85;64.85;93270.75;5090731;28;20028;-48
2021/07/03 06:39:24;;;;;;;46.90;39.92;;;;;;;17.95;63.85;93276.25;5071331;28;20027;-49
2021/07/03 06:41:49;;;;;;;44.95;35.90;;;;;;;18.00;62.76;93275.91;5071302;28;20020;-52
2021/07/03 06:44:15;;;;;;;40.70;29.40;;;;;;;18.05;62.59;93279.69;5071089;28;20032;-51
2021/07/03 06:46:40;;;;;;;159.38;116.25;;;;;;;18.05;62.95;93272.06;5071480;28;20032;-49
2021/07/03 06:49:06;;;;;;;120.15;84.55;;;;;;;18.08;61.93;93270.81;5071244;28;20028;-49
2021/07/03 06:51:32;;;;;;;44.72;31.20;;;;;;;18.13;61.30;93275.34;5071164;28;20111;-51
2021/07/03 06:54:00;;;;;;;75.78;54.33;;;;;;;18.07;62.02;93260.25;5070935;28;20162;-51
2021/07/03 06:56:26;;;;;;;25.75;23.25;;;;;;;18.13;61.55;93266.97;5069796;28;20021;-49
2021/07/03 06:58:52;;;;;;;15.32;14.20;;;;;;;18.14;61.41;93262.84;5071037;28;20024;-54
2021/07/03 07:01:17;;;;;;;23.98;21.48;;;;;;;18.13;61.47;93258.59;5069785;28;20036;-54
2021/07/03 07:03:43;;;;;;;14.57;13.75;;;;;;;18.14;61.22;93259.31;5070955;28;20025;-53
2021/07/03 07:06:08;;;;;;;15.02;13.93;;;;;;;18.13;61.09;93247.41;5070882;28;20028;-48
2021/07/03 07:08:34;;;;;;;16.20;14.98;;;;;;;18.27;60.81;93255.22;5070017;28;20029;-51
2021/07/03 07:10:59;;;;;;;15.20;14.10;;;;;;;18.21;60.26;93254.84;5074285;28;20024;-53
2021/07/03 07:13:25;;;;;;;19.20;17.52;;;;;;;18.21;60.84;93247.19;5090808;28;20032;-50
2021/07/03 07:15:50;;;;;;;11.27;10.38;;;;;;;18.31;59.41;93247.81;5090625;28;20055;-55
2021/07/03 07:18:16;;;;;;;15.30;13.60;;;;;;;18.45;59.09;93248.72;5090634;28;20031;-50
2021/07/03 07:20:41;;;;;;;12.00;10.50;;;;;;;18.59;59.55;93243.25;5090951;28;20099;-48
2021/07/03 07:23:07;;;;;;;11.00;10.10;;;;;;;18.79;58.75;93247.28;5090907;28;20119;-55
2021/07/03 07:25:32;;;;;;;11.38;10.55;;;;;;;18.98;58.66;93249.84;5085265;28;20083;-54
2021/07/03 07:27:58;;;;;;;14.23;9.10;;;;;;;19.05;58.34;93243.28;5075850;28;20107;-51
2021/07/03 07:30:24;;;;;;;7.82;7.25;;;;;;;19.00;56.93;93241.56;5079275;28;20021;-49
2021/07/03 07:32:49;;;;;;;8.38;7.78;;;;;;;18.97;56.70;93245.59;5070043;28;20048;-51
2021/07/03 07:35:15;;;;;;;8.93;7.50;;;;;;;18.87;56.19;93250.56;5088702;28;20094;-56
2021/07/03 07:37:42;;;;;;;7.60;6.90;;;;;;;18.67;55.89;93240.94;5088054;28;20102;-57
2021/07/03 07:40:08;;;;;;;15.55;7.45;;;;;;;18.57;56.60;93252.25;5080168;28;20024;-53
2021/07/03 07:42:33;;;;;;;8.02;7.13;;;;;;;18.38;56.66;93249.66;5080262;28;20025;-54
2021/07/03 07:44:59;;;;;;;10.07;7.43;;;;;;;18.28;57.18;93251.09;5078326;28;20391;-55
2021/07/03 07:47:24;;;;;;;8.13;7.60;;;;;;;18.23;57.64;93252.16;5080568;28;20107;-55
2021/07/03 07:49:50;;;;;;;11.00;9.93;;;;;;;18.25;58.21;93250.25;5079413;28;20020;-50
2021/07/03 07:52:15;;;;;;;21.58;8.60;;;;;;;18.29;58.17;93252.53;5078827;28;20024;-49
2021/07/03 07:54:41;;;;;;;19.80;11.35;;;;;;;18.36;58.27;93246.00;5076852;28;20421;-53
2021/07/03 07:57:06;;;;;;;9.75;8.57;;;;;;;18.48;57.83;93238.38;5078321;28;20039;-49
2021/07/03 07:59:31;;;;;;;13.73;8.20;;;;;;;18.50;57.80;93252.47;5079643;28;20048;-51
2021/07/03 08:01:57;;;;;;;9.98;8.75;;;;;;;18.50;58.06;93250.44;5078479;28;20513;-51
2021/07/03 08:04:22;;;;;;;19.50;9.02;;;;;;;18.52;57.67;93249.81;5079950;28;20410;-55
2021/07/03 08:06:48;;;;;;;10.52;7.68;;;;;;;18.45;57.62;93245.19;5077663;28;20020;-49
2021/07/03 08:09:14;;;;;;;13.45;7.60;;;;;;;18.33;57.35;93252.78;5077772;28;20562;-52
2021/07/03 08:11:39;;;;;;;9.00;8.13;;;;;;;18.36;57.73;93252.34;5077020;28;20583;-49
2021/07/03 08:14:05;;;;;;;8.52;7.93;;;;;;;18.39;57.99;93245.50;5076353;28;20563;-49
2021/07/03 08:16:30;;;;;;;10.52;7.38;;;;;;;18.44;57.91;93244.47;5076999;28;20408;-47
2021/07/03 08:18:56;;;;;;;8.45;7.85;;;;;;;18.48;57.86;93243.97;5076807;28;20103;-49
2021/07/03 08:21:21;;;;;;;10.18;8.40;;;;;;;18.43;58.53;93250.66;5077509;28;20684;-57
2021/07/03 08:23:47;;;;;;;8.82;8.02;;;;;;;18.44;58.29;93240.91;5075659;28;20079;-49
2021/07/03 08:26:12;;;;;;;8.27;7.75;;;;;;;18.50;58.21;93239.25;5076425;28;20103;-50
2021/07/03 08:28:38;;;;;;;8.35;7.65;;;;;;;18.87;58.47;93247.78;5077578;28;20028;-49
2021/07/03 08:31:04;;;;;;;10.68;7.63;;;;;;;19.34;57.11;93232.41;5076082;28;20056;-54
2021/07/03 08:33:29;;;;;;;7.03;6.63;;;;;;;19.78;55.45;93217.44;5078263;28;20101;-56
2021/07/03 08:35:55;;;;;;;12.75;7.50;;;;;;;20.12;55.23;93238.97;5075883;28;20020;-53
2021/07/03 08:38:20;;;;;;;13.77;7.63;;;;;;;20.26;53.01;93233.44;5077428;28;20024;-49
2021/07/03 08:40:46;;;;;;;6.10;5.70;;;;;;;20.14;52.71;93241.16;5077317;28;20070;-55
2021/07/03 08:43:11;;;;;;;6.65;6.05;;;;;;;19.97;53.75;93242.31;5075929;28;20560;-51
2021/07/03 08:45:37;;;;;;;58.80;52.90;;;;;;;19.74;53.87;93233.28;5087378;28;20032;-49
2021/07/03 08:48:03;;;;;;;6.95;6.43;;;;;;;19.56;54.36;93241.38;5076969;28;20734;-50
2021/07/03 08:50:29;;;;;;;11.18;6.32;;;;;;;19.43;55.22;93239.22;5074035;28;20104;-57
2021/07/03 08:52:54;;;;;;;11.38;10.57;;;;;;;19.31;55.92;93228.03;5082884;28;20031;-57
2021/07/03 08:55:22;;;;;;;12.85;11.88;;;;;;;19.42;56.00;93218.16;5077053;28;20044;-51
2021/07/03 08:58:05;;;;;;;11.65;10.75;;;;;;;19.57;55.31;93220.44;5075826;28;20655;-56
2021/07/03 09:00:40;;;;;;;12.23;11.35;;;;;;;19.58;55.32;93222.63;5075958;28;20512;-53
2021/07/03 09:03:21;;;;;;;15.50;14.02;;;;;;;19.75;54.47;93221.44;5075483;28;20413;-46
2021/07/03 09:05:53;;;;;;;11.63;9.50;;;;;;;20.05;54.51;93223.16;5075636;28;20105;-56
2021/07/03 09:08:19;;;;;;;10.32;9.48;;;;;;;20.00;54.34;93221.47;5074920;28;20023;-55
2021/07/03 09:10:45;;;;;;;15.45;10.52;;;;;;;19.89;54.29;93244.69;5074514;28;20078;-57
2021/07/03 09:13:11;;;;;;;11.93;11.13;;;;;;;19.57;54.73;93234.44;5073981;28;20025;-58
2021/07/03 09:15:40;;;;;;;13.73;12.82;;;;;;;19.35;55.28;93233.16;5075122;28;20475;-51
2021/07/03 09:18:13;;;;;;;16.13;15.10;;;;;;;19.08;55.56;93236.44;5089917;28;20390;-53
2021/07/03 09:20:41;;;;;;;16.13;14.43;;;;;;;18.88;55.53;93238.75;5075881;28;20429;-51
2021/07/03 09:23:13;;;;;;;17.02;15.85;;;;;;;18.77;55.98;93244.38;5075568;28;20174;-49
2021/07/03 09:25:41;;;;;;;18.55;17.23;;;;;;;18.67;56.19;93243.75;5074798;28;20035;-48
2021/07/03 09:28:21;;;;;;;16.95;16.05;;;;;;;18.57;56.76;93243.88;5078823;28;20031;-51
2021/07/03 09:30:48;;;;;;;16.75;15.23;;;;;;;18.45;56.87;93231.22;5074918;28;20099;-47
2021/07/03 09:33:18;;;;;;;21.33;18.75;;;;;;;18.41;57.94;93248.44;5075405;28;20083;-51
2021/07/03 09:35:43;;;;;;;25.42;23.55;;;;;;;18.33;60.08;93233.22;5074753;28;20028;-48
2021/07/03 09:38:09;;;;;;;33.97;32.17;;;;;;;18.24;60.06;93248.03;5076221;28;20093;-49
2021/07/03 09:40:36;;;;;;;18.73;16.98;;;;;;;18.21;61.20;93243.66;5076029;28;20723;-50
2021/07/03 09:43:04;;;;;;;16.52;15.02;;;;;;;18.21;60.67;93240.88;5086622;28;20746;-49
2021/07/03 09:45:29;;;;;;;14.75;13.75;;;;;;;18.19;60.57;93247.06;5082829;28;20024;-47
2021/07/03 09:48:11;;;;;;;15.30;14.20;;;;;;;18.16;60.21;93245.47;5078373;28;20021;-46
2021/07/03 09:50:39;;;;;;;10.80;9.93;;;;;;;18.20;59.60;93240.13;5077980;28;20109;-51
2021/07/03 09:53:06;;;;;;;11.40;10.40;;;;;;;18.13;59.47;93229.91;5076845;28;20023;-52
2021/07/03 09:55:32;;;;;;;10.00;9.40;;;;;;;18.38;59.21;93252.44;5077492;28;20027;-47
2021/07/03 09:57:58;;;;;;;12.25;10.85;;;;;;;18.66;58.84;93237.44;5078527;28;20036;-48
2021/07/03 10:00:23;;;;;;;10.80;10.10;;;;;;;19.25;57.98;93224.84;5075501;28;20023;-51
2021/07/03 10:02:49;;;;;;;10.32;8.20;;;;;;;20.31;54.66;93232.31;5077316;28;20024;-53
2021/07/03 10:05:17;;;;;;;9.07;6.40;;;;;;;21.14;52.39;93231.84;5075621;28;20576;-54
2021/07/03 10:07:59;;;;;;;14.40;8.95;;;;;;;21.96;50.15;93232.47;5075082;28;20531;-53
2021/07/03 10:10:26;;;;;;;8.02;7.43;;;;;;;22.49;48.83;93210.38;5054695;28;20458;-52
2021/07/03 10:12:58;;;;;;;6.82;6.35;;;;;;;23.19;45.34;93222.03;5073768;28;20017;-53
2021/07/03 10:15:27;;;;;;;5.40;5.10;;;;;;;23.98;44.32;93220.47;5074654;28;20021;-57
2021/07/03 10:17:53;;;;;;;4.88;4.57;;;;;;;24.37;42.35;93211.47;5080667;28;20013;-58
2021/07/03 10:20:18;;;;;;;6.35;4.00;;;;;;;24.99;41.39;93207.53;5083279;28;20382;-56
2021/07/03 10:22:52;;;;;;;4.20;3.90;;;;;;;24.93;41.31;93215.06;5074384;28;20028;-59
2021/07/03 10:25:18;;;;;;;4.25;3.95;;;;;;;25.21;40.81;93210.44;5084683;28;20016;-56
2021/07/03 10:27:56;;;;;;;4.40;4.00;;;;;;;25.04;40.36;93203.44;5081168;28;20065;-55
2021/07/03 10:30:24;;;;;;;6.57;4.68;;;;;;;24.32;42.04;93209.16;5079657;28;20385;-58
2021/07/03 10:32:55;;;;;;;9.47;5.90;;;;;;;23.65;43.78;93208.53;5076881;28;20074;-58
2021/07/03 10:35:22;;;;;;;6.25;5.85;;;;;;;23.05;44.48;93207.34;5081827;28;20827;-54
2021/07/03 10:37:48;;;;;;;6.38;5.88;;;;;;;22.52;45.93;93204.19;5080173;28;20020;-54
2021/07/03 10:40:16;;;;;;;10.38;7.60;;;;;;;21.93;47.56;93214.06;5077568;28;20021;-59
2021/07/03 10:42:42;;;;;;;11.05;10.23;;;;;;;21.43;48.48;93205.94;5076860;28;20028;-55
2021/07/03 10:45:07;;;;;;;9.43;8.77;;;;;;;20.71;50.28;93200.81;5079339;28;20529;-55
2021/07/03 10:47:33;;;;;;;12.48;11.77;;;;;;;20.35;50.87;93182.06;5080477;28;20032;-53
2021/07/03 10:49:59;;;;;;;9.98;9.13;;;;;;;20.50;52.08;93203.91;5081637;28;20024;-50
2021/07/03 10:52:24;;;;;;;13.23;9.13;;;;;;;20.49;51.83;93191.22;5079795;28;20017;-53
2021/07/03 10:55:01;;;;;;;8.82;8.23;;;;;;;20.52;51.10;93194.88;5080674;28;20019;-54
2021/07/03 10:57:26;;;;;;;8.65;8.10;;;;;;;20.56;50.84;93190.19;5079091;28;20019;-53
2021/07/03 11:00:00;;;;;;;9.73;8.98;;;;;;;20.57;51.67;93196.53;5080612;28;20522;-55
2021/07/03 11:02:30;;;;;;;11.77;9.15;;;;;;;20.52;50.94;93201.22;5079852;28;20150;-54
2021/07/03 11:04:55;;;;;;;10.45;8.25;;;;;;;20.56;50.88;93207.03;5079546;28;20023;-52
2021/07/03 11:07:31;;;;;;;10.40;9.60;;;;;;;20.60;51.22;93200.91;5081708;28;20016;-48
2021/07/03 11:10:15;;;;;;;16.50;15.25;;;;;;;20.64;50.25;93204.66;5081112;28;20142;-55
2021/07/03 11:12:47;;;;;;;9.73;9.10;;;;;;;20.60;50.07;93196.03;5081360;28;20046;-51
2021/07/03 11:15:15;;;;;;;17.13;15.77;;;;;;;20.66;50.48;93204.75;5080731;28;20024;-48